createdAt,value
2022-08-12T00:02:03.249Z,17.07
2022-08-12T00:04:58.203Z,16.95
2022-08-12T00:08:28.923Z,16.50
2022-08-12T00:11:47.536Z,19.27
2022-08-12T00:15:11.660Z,14.23
2022-08-12T00:18:37.818Z,20.27
2022-08-12T00:22:01.227Z,15.75
2022-08-12T00:26:05.409Z,18.77
2022-08-12T00:28:51.118Z,18.15
2022-08-12T00:32:35.325Z,21.93
2022-08-12T00:35:44.437Z,20.82
2022-08-12T00:39:09.474Z,18.40
2022-08-12T00:42:17.449Z,19.52
2022-08-12T00:45:22.986Z,20.95
2022-08-12T00:48:28.284Z,18.80
2022-08-12T00:51:38.358Z,17.67
2022-08-12T00:54:43.578Z,24.65
2022-08-12T00:57:50.769Z,24.85
2022-08-12T01:00:56.865Z,24.75
2022-08-12T01:04:20.152Z,25.30
2022-08-12T01:07:43.952Z,19.60
2022-08-12T01:11:11.085Z,18.10
2022-08-12T01:14:11.917Z,20.40
2022-08-12T01:17:17.619Z,20.52
2022-08-12T01:20:22.907Z,28.83
2022-08-12T01:23:40.875Z,31.25
2022-08-12T01:26:46.704Z,25.08
2022-08-12T01:29:58.490Z,28.73
2022-08-12T01:33:05.217Z,23.65
2022-08-12T01:36:13.518Z,20.48
2022-08-12T01:39:18.993Z,24.90
2022-08-12T01:42:18.351Z,30.90
2022-08-12T01:45:11.277Z,23.52
2022-08-12T01:48:41.136Z,19.60
2022-08-12T01:52:20.361Z,32.35
2022-08-12T01:54:56.061Z,26.42
2022-08-12T01:58:01.037Z,37.00
2022-08-12T02:01:18.372Z,22.37
2022-08-12T02:05:10.731Z,25.80
2022-08-12T02:09:11.329Z,28.07
2022-08-12T02:12:41.872Z,34.58
2022-08-12T02:16:18.615Z,25.85
2022-08-12T02:19:50.861Z,27.85
2022-08-12T02:22:58.241Z,22.77
2022-08-12T02:26:03.801Z,27.07
2022-08-12T02:29:09.271Z,24.87
2022-08-12T02:32:15.654Z,25.97
2022-08-12T02:35:27.098Z,22.17
2022-08-12T02:38:34.275Z,34.13
2022-08-12T02:41:40.060Z,29.18
2022-08-12T02:44:50.733Z,28.70
2022-08-12T02:47:59.688Z,31.55
2022-08-12T02:51:08.052Z,37.90
2022-08-12T02:54:16.426Z,33.50
2022-08-12T02:57:23.866Z,42.58
2022-08-12T03:00:29.557Z,29.80
2022-08-12T03:03:34.911Z,37.60
2022-08-12T03:06:42.817Z,36.35
2022-08-12T03:10:04.384Z,37.40
2022-08-12T03:13:01.442Z,43.40
2022-08-12T03:16:08.462Z,31.90
2022-08-12T03:19:13.741Z,29.50
2022-08-12T03:22:21.810Z,36.75
2022-08-12T03:25:41.134Z,38.58
2022-08-12T03:29:05.255Z,34.25
2022-08-12T03:32:35.915Z,43.08
2022-08-12T03:35:40.066Z,44.40
2022-08-12T03:38:30.566Z,43.33
2022-08-12T03:41:43.388Z,51.77
2022-08-12T03:45:22.994Z,39.23
2022-08-12T03:48:46.501Z,40.38
2022-08-12T03:52:10.259Z,52.30
2022-08-12T03:55:34.365Z,52.38
2022-08-12T03:58:58.528Z,50.75
2022-08-12T04:02:05.774Z,44.27
2022-08-12T04:05:11.433Z,47.50
2022-08-12T04:08:18.394Z,54.13
2022-08-12T04:11:46.951Z,40.48
2022-08-12T04:14:48.492Z,47.62
2022-08-12T04:18:07.398Z,53.90
2022-08-12T04:21:01.947Z,51.30
2022-08-12T04:24:07.566Z,42.33
2022-08-12T04:27:15.565Z,46.53
2022-08-12T04:30:32.529Z,41.18
2022-08-12T04:33:28.612Z,57.27
2022-08-12T04:36:33.412Z,51.05
2022-08-12T04:39:41.320Z,38.48
2022-08-12T04:42:48.191Z,46.08
2022-08-12T04:45:56.506Z,47.85
2022-08-12T04:49:02.699Z,39.60
2022-08-12T04:52:10.437Z,40.83
2022-08-12T04:55:18.590Z,45.08
2022-08-12T04:58:29.445Z,31.30
2022-08-12T05:01:33.671Z,37.50
2022-08-12T05:04:39.252Z,35.03
2022-08-12T05:07:47.821Z,39.27
2022-08-12T05:10:53.128Z,34.27
2022-08-12T05:13:59.002Z,37.70
2022-08-12T05:17:07.626Z,29.95
2022-08-12T05:20:14.500Z,29.27
2022-08-12T05:23:25.999Z,31.20
2022-08-12T05:26:32.411Z,33.05
2022-08-12T05:30:06.371Z,35.30
2022-08-12T05:32:45.467Z,30.23
2022-08-12T05:35:54.382Z,23.75
2022-08-12T05:39:04.454Z,34.63
2022-08-12T05:42:11.796Z,23.47
2022-08-12T05:45:11.142Z,23.45
2022-08-12T05:47:57.797Z,28.42
2022-08-12T05:50:51.273Z,22.07
2022-08-12T05:53:39.339Z,22.58
2022-08-12T05:56:34.324Z,24.65
2022-08-12T05:59:28.028Z,16.80
2022-08-12T06:02:33.466Z,15.20
2022-08-12T06:05:51.862Z,20.52
2022-08-12T06:08:50.691Z,20.05
2022-08-12T06:12:04.441Z,17.20
2022-08-12T06:15:05.203Z,14.25
2022-08-12T06:18:20.039Z,16.23
2022-08-12T06:21:27.992Z,15.05
2022-08-12T06:24:34.943Z,12.75
2022-08-12T06:27:40.632Z,12.73
2022-08-12T06:31:08.298Z,15.68
2022-08-12T06:33:59.668Z,15.55
2022-08-12T06:37:02.591Z,17.40
2022-08-12T06:40:08.744Z,18.60
2022-08-12T06:43:14.499Z,21.07
2022-08-12T06:46:13.385Z,9.28
2022-08-12T06:49:07.617Z,12.68
2022-08-12T06:52:14.651Z,12.33
2022-08-12T06:55:22.132Z,9.33
2022-08-12T06:58:28.377Z,13.22
2022-08-12T07:01:36.738Z,10.72
2022-08-12T07:04:43.947Z,8.20
2022-08-12T07:07:51.868Z,11.20
2022-08-12T07:11:09.059Z,10.43
2022-08-12T07:14:16.480Z,21.77
2022-08-12T07:17:22.768Z,14.33
2022-08-12T07:20:51.213Z,14.35
2022-08-12T07:23:35.479Z,14.60
2022-08-12T07:26:44.266Z,18.75
2022-08-12T07:30:02.655Z,16.63
2022-08-12T07:33:01.788Z,20.95
2022-08-12T07:36:06.726Z,25.20
2022-08-12T07:39:11.507Z,19.02
2022-08-12T07:42:17.988Z,18.95
2022-08-12T07:45:24.305Z,21.73
2022-08-12T07:48:29.604Z,17.67
2022-08-12T07:51:37.163Z,25.45
2022-08-12T07:54:43.628Z,25.48
2022-08-12T07:57:49.571Z,18.73
2022-08-12T08:00:56.774Z,19.20
2022-08-12T08:04:24.415Z,19.05
2022-08-12T08:07:29.386Z,27.42
2022-08-12T08:10:35.521Z,21.50
2022-08-12T08:13:43.219Z,19.07
2022-08-12T08:16:51.251Z,22.50
2022-08-12T08:20:03.894Z,23.22
2022-08-12T08:23:08.145Z,24.67
2022-08-12T08:26:13.492Z,21.48
2022-08-12T08:29:20.385Z,25.45
2022-08-12T08:32:26.226Z,20.45
2022-08-12T08:35:47.126Z,26.30
2022-08-12T08:38:40.289Z,22.27
2022-08-12T08:42:17.581Z,22.62
2022-08-12T08:45:14.124Z,22.35
2022-08-12T08:48:21.619Z,29.52
2022-08-12T08:51:28.850Z,19.40
2022-08-12T08:54:37.311Z,24.10
2022-08-12T08:57:44.735Z,23.80
2022-08-12T09:00:47.619Z,24.40
2022-08-12T09:05:09.714Z,22.85
2022-08-12T09:07:18.063Z,19.32
2022-08-12T09:10:23.417Z,17.48
2022-08-12T09:16:50.124Z,19.82
2022-08-12T09:19:58.332Z,16.52
2022-08-12T09:23:08.053Z,26.77
2022-08-12T09:26:09.780Z,18.98
2022-08-12T09:29:16.191Z,21.27
2022-08-12T09:32:56.237Z,20.23
2022-08-12T09:35:43.051Z,20.00
2022-08-12T09:38:58.933Z,15.68
2022-08-12T09:42:34.502Z,18.77
2022-08-12T09:46:06.281Z,24.98
2022-08-12T09:48:25.304Z,18.42
2022-08-12T09:54:42.995Z,20.08
2022-08-12T09:58:44.983Z,19.43
2022-08-12T10:00:54.367Z,16.35
2022-08-12T10:04:04.541Z,17.37
2022-08-12T10:07:06.937Z,18.40
2022-08-12T10:10:23.007Z,18.27
2022-08-12T10:13:40.160Z,15.95
2022-08-12T10:16:48.478Z,18.65
2022-08-12T10:19:51.790Z,18.20
2022-08-12T10:22:56.130Z,25.55
2022-08-12T10:26:37.569Z,25.43
2022-08-12T10:30:38.040Z,17.62
2022-08-12T10:32:58.021Z,19.30
2022-08-12T10:36:07.046Z,16.40
2022-08-12T10:40:01.780Z,23.35
2022-08-12T10:42:46.308Z,26.10
2022-08-12T10:45:49.911Z,24.80
2022-08-12T10:49:05.596Z,30.43
2022-08-12T10:52:34.361Z,29.85
2022-08-12T10:55:13.063Z,27.13
2022-08-12T10:58:28.086Z,24.47
2022-08-12T11:04:17.210Z,28.87
2022-08-12T11:04:44.849Z,20.50
2022-08-12T11:08:36.639Z,31.50
2022-08-12T11:10:54.519Z,33.93
2022-08-12T11:14:00.129Z,22.95
2022-08-12T11:17:34.090Z,28.70
2022-08-12T11:20:15.198Z,23.45
2022-08-12T11:23:35.764Z,36.17
2022-08-12T11:26:27.114Z,27.35
2022-08-12T11:30:01.441Z,27.80
2022-08-12T11:35:51.297Z,29.92
2022-08-12T11:38:58.119Z,46.65
2022-08-12T11:41:57.026Z,33.78
2022-08-12T11:45:05.084Z,31.35
2022-08-12T11:48:10.842Z,31.37
2022-08-12T11:51:17.930Z,23.62
2022-08-12T11:54:23.997Z,25.00
2022-08-12T11:58:19.670Z,25.92
2022-08-12T12:03:46.679Z,25.37
2022-08-12T12:06:53.423Z,21.50
2022-08-12T12:10:00.366Z,17.62
2022-08-12T12:13:11.627Z,20.27
2022-08-12T12:16:13.714Z,19.92
2022-08-12T12:19:20.545Z,18.80
2022-08-12T12:22:30.952Z,16.48
2022-08-12T12:25:59.216Z,20.15
2022-08-12T12:28:40.983Z,19.92
2022-08-12T12:32:11.814Z,17.00
2022-08-12T12:35:14.054Z,23.47
2022-08-12T12:38:12.379Z,26.05
2022-08-12T12:41:18.868Z,21.10
2022-08-12T12:44:25.786Z,22.35
2022-08-12T12:47:31.285Z,20.15
2022-08-12T12:50:45.279Z,19.00
2022-08-12T12:54:07.873Z,21.75
2022-08-12T12:56:56.416Z,19.30
2022-08-12T13:00:20.690Z,23.83
2022-08-12T13:03:29.937Z,17.82
2022-08-12T13:06:38.748Z,17.73
2022-08-12T13:09:46.796Z,16.32
2022-08-12T13:12:52.081Z,16.65
2022-08-12T13:15:59.411Z,19.98
2022-08-12T13:19:06.838Z,15.72
2022-08-12T13:22:26.265Z,21.90
2022-08-12T13:25:34.354Z,18.75
2022-08-12T13:32:19.398Z,19.62
2022-08-12T13:35:03.903Z,21.87
2022-08-12T13:38:08.941Z,22.37
2022-08-12T13:41:14.005Z,20.10
2022-08-12T13:44:22.839Z,17.85
2022-08-12T13:47:28.750Z,23.40
2022-08-12T13:50:43.659Z,30.60
2022-08-12T13:53:57.700Z,21.65
2022-08-12T13:56:58.125Z,25.48
2022-08-12T14:00:04.083Z,15.38
2022-08-12T14:03:11.964Z,18.48
2022-08-12T14:06:22.017Z,14.03
2022-08-12T14:09:29.562Z,13.15
2022-08-12T14:12:36.905Z,14.98
2022-08-12T14:15:44.381Z,20.72
2022-08-12T14:18:52.014Z,19.25
2022-08-12T14:22:04.662Z,15.93
2022-08-12T14:25:08.629Z,13.70
2022-08-12T14:28:25.570Z,16.12
2022-08-12T14:31:32.575Z,11.22
2022-08-12T14:34:40.655Z,12.33
2022-08-12T14:37:56.407Z,16.80
2022-08-12T14:40:57.705Z,12.33
2022-08-12T14:44:57.312Z,8.28
2022-08-12T14:47:12.672Z,13.38
2022-08-12T14:50:40.841Z,16.52
2022-08-12T15:00:00.644Z,11.75
2022-08-12T15:02:59.920Z,10.32
2022-08-12T15:06:06.636Z,7.35
2022-08-12T15:08:54.864Z,11.93
2022-08-12T15:12:04.537Z,9.05
2022-08-12T15:15:13.862Z,11.70
2022-08-12T15:18:24.385Z,10.13
2022-08-12T15:22:36.763Z,11.60
2022-08-12T15:24:43.868Z,9.65
2022-08-12T15:28:04.260Z,14.00
2022-08-12T15:31:01.377Z,13.20
2022-08-12T15:34:07.738Z,16.15
2022-08-12T15:37:17.225Z,16.75
2022-08-12T15:40:30.269Z,14.98
2022-08-12T15:44:17.002Z,11.57
2022-08-12T15:46:43.836Z,15.72
2022-08-12T15:49:59.506Z,16.62
2022-08-12T15:52:58.414Z,14.50
2022-08-12T15:56:05.463Z,12.80
2022-08-12T15:59:10.949Z,13.72
2022-08-12T16:02:20.423Z,20.05
2022-08-12T16:06:12.931Z,14.05
2022-08-12T16:08:37.298Z,15.43
2022-08-12T16:11:45.007Z,12.05
2022-08-12T16:14:51.266Z,19.77
2022-08-12T16:18:17.925Z,21.10
2022-08-12T16:21:09.075Z,21.70
2022-08-12T16:24:14.838Z,14.95
2022-08-12T16:27:21.440Z,13.22
2022-08-12T16:30:29.377Z,14.80
2022-08-12T16:33:35.741Z,17.57
2022-08-12T16:36:47.396Z,17.25
2022-08-12T16:40:01.720Z,21.20
2022-08-12T16:43:02.152Z,19.75
2022-08-12T16:46:05.567Z,19.10
2022-08-12T16:48:47.059Z,20.55
2022-08-12T16:52:00.098Z,16.55
2022-08-12T16:55:05.404Z,17.80
2022-08-12T16:58:28.546Z,21.25
2022-08-12T17:01:19.729Z,16.42
2022-08-12T17:04:28.241Z,15.80
2022-08-12T17:07:36.477Z,13.70
2022-08-12T17:10:41.536Z,19.90
2022-08-12T17:13:53.117Z,13.05
2022-08-12T17:16:59.577Z,18.62
2022-08-12T17:20:34.893Z,14.95
2022-08-12T17:23:23.652Z,19.65
2022-08-12T17:26:32.888Z,13.55
2022-08-12T17:30:01.943Z,14.20
2022-08-12T17:32:53.302Z,33.05
2022-08-12T17:35:57.902Z,16.17
2022-08-12T17:39:04.779Z,17.37
2022-08-12T17:42:32.891Z,18.52
2022-08-12T17:45:18.471Z,23.30
2022-08-12T17:48:26.267Z,13.43
2022-08-12T17:51:49.858Z,11.93
2022-08-12T17:54:45.323Z,17.12
2022-08-12T17:57:52.905Z,16.97
2022-08-12T18:01:01.044Z,14.75
2022-08-12T18:04:22.863Z,63.73
2022-08-12T18:07:21.279Z,15.88
2022-08-12T18:10:53.130Z,17.15
2022-08-12T18:13:59.606Z,16.27
2022-08-12T18:17:10.033Z,18.48
2022-08-12T18:20:19.485Z,16.23
2022-08-12T18:23:25.190Z,22.60
2022-08-12T18:26:34.941Z,19.67
2022-08-12T18:29:43.221Z,15.75
2022-08-12T18:32:58.854Z,14.15
2022-08-12T18:36:02.864Z,16.65
2022-08-12T18:39:19.519Z,15.30
2022-08-12T18:42:25.414Z,15.55
2022-08-12T18:45:46.862Z,22.37
2022-08-12T18:48:52.465Z,18.85
2022-08-12T18:52:02.263Z,14.05
2022-08-12T18:55:08.342Z,19.80
2022-08-12T18:58:25.467Z,19.60
2022-08-12T19:02:19.389Z,17.15
2022-08-12T19:04:45.574Z,14.40
2022-08-12T19:08:04.379Z,11.50
2022-08-12T19:11:30.880Z,13.70
2022-08-12T19:14:40.499Z,16.15
2022-08-12T19:18:01.157Z,16.87
2022-08-12T19:21:11.679Z,17.82
2022-08-12T19:24:29.354Z,14.30
2022-08-12T19:27:37.026Z,19.73
2022-08-12T19:31:05.703Z,18.50
2022-08-12T19:34:47.031Z,18.23
2022-08-12T19:37:18.947Z,18.30
2022-08-12T19:40:31.251Z,15.30
2022-08-12T19:43:59.520Z,21.75
2022-08-12T19:46:51.884Z,18.67
2022-08-12T19:50:05.529Z,21.37
2022-08-12T19:53:12.870Z,30.62
2022-08-12T19:56:20.459Z,21.07
2022-08-12T19:59:43.477Z,16.42
2022-08-12T20:02:44.299Z,19.07
2022-08-12T20:06:04.594Z,17.02
2022-08-12T20:09:04.028Z,22.15
2022-08-12T20:12:18.047Z,19.87
2022-08-12T20:15:21.871Z,21.15
2022-08-12T20:18:52.927Z,17.23
2022-08-12T20:21:40.613Z,27.37
2022-08-12T20:24:46.291Z,21.95
2022-08-12T20:28:03.045Z,21.27
2022-08-12T20:30:59.388Z,17.70
2022-08-12T20:33:50.679Z,17.32
2022-08-12T20:36:57.320Z,21.80
2022-08-12T20:40:05.354Z,25.77
2022-08-12T20:43:12.822Z,19.42
2022-08-12T20:46:20.191Z,20.40
2022-08-12T20:49:25.101Z,21.57
2022-08-12T20:52:34.242Z,16.42
2022-08-12T20:55:56.583Z,28.12
2022-08-12T20:58:50.845Z,15.98
2022-08-12T21:01:56.876Z,21.07
2022-08-12T21:05:23.112Z,16.75
2022-08-12T21:08:28.685Z,14.95
2022-08-12T21:11:33.856Z,24.55
2022-08-12T21:14:53.447Z,24.12
2022-08-12T21:20:59.441Z,22.60
2022-08-12T21:24:05.043Z,21.62
2022-08-12T21:27:11.636Z,26.35
2022-08-12T21:30:20.478Z,20.10
2022-08-12T21:33:30.797Z,20.00
2022-08-12T21:36:35.257Z,18.07
2022-08-12T21:39:41.317Z,22.75
2022-08-12T21:42:49.060Z,27.75
2022-08-12T21:46:01.657Z,26.15
2022-08-12T21:49:04.802Z,17.37
2022-08-12T21:52:10.892Z,17.55
2022-08-12T21:55:19.009Z,19.35
2022-08-12T21:58:27.820Z,19.50
2022-08-12T22:01:35.830Z,18.73
2022-08-12T22:04:52.706Z,16.77
2022-08-12T22:07:58.426Z,19.23
2022-08-12T22:11:04.300Z,23.90
2022-08-12T22:14:21.383Z,29.15
2022-08-12T22:17:21.592Z,18.40
2022-08-12T22:20:31.093Z,18.75
2022-08-12T22:24:04.135Z,18.67
2022-08-12T22:26:43.296Z,18.17
2022-08-12T22:30:06.910Z,26.55
2022-08-12T22:33:18.137Z,18.00
2022-08-12T22:36:29.076Z,21.02
2022-08-12T22:39:32.327Z,23.05
2022-08-12T22:42:40.519Z,12.93
2022-08-12T22:46:05.494Z,23.90
2022-08-12T22:49:10.960Z,25.37
2022-08-12T22:52:22.916Z,16.07
2022-08-12T22:56:00.522Z,19.57
2022-08-12T22:58:40.746Z,20.00
2022-08-12T23:02:01.453Z,20.88
2022-08-12T23:04:57.424Z,25.43
2022-08-12T23:08:04.317Z,17.02
2022-08-12T23:11:09.206Z,27.40
2022-08-12T23:14:10.607Z,18.12
2022-08-12T23:17:21.450Z,21.48
2022-08-12T23:20:19.762Z,23.30
2022-08-12T23:23:27.415Z,19.15
2022-08-12T23:26:52.227Z,17.67
2022-08-12T23:30:16.664Z,22.50
2022-08-12T23:33:13.416Z,19.48
2022-08-12T23:36:13.307Z,15.30
2022-08-12T23:40:13.158Z,19.73
2022-08-12T23:42:31.029Z,20.68
2022-08-12T23:45:34.685Z,26.30
2022-08-12T23:48:40.991Z,28.77
2022-08-12T23:51:49.628Z,16.15
2022-08-12T23:54:58.053Z,17.42
2022-08-12T23:58:21.413Z,21.50
